createdAt,value
2019-01-10T00:01:43.541Z,6.10
2019-01-10T00:04:14.664Z,5.03
2019-01-10T00:06:46.156Z,6.57
2019-01-10T00:09:17.158Z,5.73
2019-01-10T00:11:48.282Z,5.10
2019-01-10T00:14:19.337Z,6.07
2019-01-10T00:16:50.537Z,5.13
2019-01-10T00:19:21.525Z,5.00
2019-01-10T00:21:52.648Z,5.07
2019-01-10T00:24:23.610Z,4.20
2019-01-10T00:26:54.901Z,6.43
2019-01-10T00:29:25.897Z,5.00
2019-01-10T00:31:57.049Z,4.83
2019-01-10T00:34:28.176Z,4.90
2019-01-10T00:36:59.758Z,5.70
2019-01-10T00:39:30.877Z,5.60
2019-01-10T00:42:02.353Z,6.43
2019-01-10T00:44:33.455Z,6.27
2019-01-10T00:47:04.574Z,5.93
2019-01-10T00:49:35.657Z,5.37
2019-01-10T00:52:06.769Z,6.50
2019-01-10T00:54:37.745Z,6.00
2019-01-10T00:57:09.310Z,6.63
2019-01-10T00:59:40.337Z,6.67
2019-01-10T01:02:11.513Z,5.57
2019-01-10T01:04:42.616Z,7.20
2019-01-10T01:07:14.009Z,7.13
2019-01-10T01:09:45.109Z,7.07
2019-01-10T01:12:16.413Z,7.10
2019-01-10T01:14:47.408Z,7.30
2019-01-10T01:17:18.625Z,6.27
2019-01-10T01:19:49.582Z,6.83
2019-01-10T01:22:20.769Z,6.50
2019-01-10T01:24:51.770Z,6.87
2019-01-10T01:27:23.024Z,7.67
2019-01-10T01:29:54.152Z,7.17
2019-01-10T01:32:25.361Z,5.80
2019-01-10T01:34:56.348Z,6.03
2019-01-10T01:37:27.529Z,7.00
2019-01-10T01:39:58.630Z,8.40
2019-01-10T01:42:29.725Z,6.50
2019-01-10T01:45:00.779Z,6.67
2019-01-10T01:47:32.302Z,6.30
2019-01-10T01:50:04.141Z,7.03
2019-01-10T01:52:35.234Z,7.10
2019-01-10T01:55:06.633Z,7.80
2019-01-10T01:57:37.708Z,5.70
2019-01-10T02:00:12.057Z,5.93
2019-01-10T02:02:43.469Z,6.33
2019-01-10T02:05:16.105Z,6.23
2019-01-10T02:07:47.494Z,5.33
2019-01-10T02:10:21.161Z,4.30
2019-01-10T02:12:53.489Z,5.27
2019-01-10T02:15:24.570Z,4.63
2019-01-10T02:17:55.854Z,5.10
2019-01-10T02:20:26.857Z,4.50
2019-01-10T02:22:58.422Z,5.17
2019-01-10T02:25:29.444Z,5.10
2019-01-10T02:28:00.549Z,4.70
2019-01-10T02:30:41.607Z,4.50
2019-01-10T02:33:04.327Z,4.70
2019-01-10T02:35:35.360Z,3.73
2019-01-10T02:38:06.546Z,4.47
2019-01-10T02:40:37.555Z,5.00
2019-01-10T02:43:08.922Z,4.23
2019-01-10T02:45:40.026Z,4.67
2019-01-10T02:48:11.425Z,4.57
2019-01-10T02:50:42.518Z,4.10
2019-01-10T02:53:13.615Z,3.80
2019-01-10T02:55:44.609Z,4.40
2019-01-10T02:58:15.702Z,5.07
2019-01-10T03:00:46.782Z,4.67
2019-01-10T03:03:18.000Z,4.23
2019-01-10T03:05:48.976Z,3.60
2019-01-10T03:08:20.165Z,3.57
2019-01-10T03:10:51.258Z,4.03
2019-01-10T03:13:22.466Z,3.77
2019-01-10T03:15:53.449Z,3.47
2019-01-10T03:18:24.651Z,3.80
2019-01-10T03:20:55.632Z,3.23
2019-01-10T03:23:26.793Z,3.20
2019-01-10T03:25:57.909Z,3.67
2019-01-10T03:28:29.110Z,4.20
2019-01-10T03:31:00.106Z,2.90
2019-01-10T03:33:31.203Z,3.77
2019-01-10T03:36:02.185Z,3.73
2019-01-10T03:38:33.542Z,2.50
2019-01-10T03:41:04.578Z,3.80
2019-01-10T03:43:35.645Z,2.77
2019-01-10T03:46:06.853Z,3.50
2019-01-10T03:48:39.093Z,3.60
2019-01-10T03:51:10.166Z,4.00
2019-01-10T03:53:41.461Z,2.80
2019-01-10T03:56:12.557Z,4.37
2019-01-10T03:58:43.833Z,3.73
2019-01-10T04:01:14.858Z,3.43
2019-01-10T04:03:46.302Z,4.70
2019-01-10T04:06:17.444Z,4.33
2019-01-10T04:08:48.705Z,3.53
2019-01-10T04:11:19.828Z,3.87
2019-01-10T04:13:57.296Z,3.83
2019-01-10T04:16:23.758Z,3.93
2019-01-10T04:18:54.854Z,4.27
2019-01-10T04:21:25.940Z,4.60
2019-01-10T04:23:57.511Z,3.40
2019-01-10T04:26:28.547Z,4.77
2019-01-10T04:28:59.739Z,4.83
2019-01-10T04:31:30.821Z,5.20
2019-01-10T04:34:01.938Z,4.30
2019-01-10T04:36:32.909Z,4.50
2019-01-10T04:39:05.605Z,4.90
2019-01-10T04:41:36.639Z,4.83
2019-01-10T04:44:07.638Z,4.83
2019-01-10T04:46:39.645Z,4.90
2019-01-10T04:49:10.817Z,5.17
2019-01-10T04:51:41.969Z,5.70
2019-01-10T04:54:13.021Z,5.23
2019-01-10T04:56:44.085Z,5.70
2019-01-10T04:59:15.289Z,5.83
2019-01-10T05:01:46.281Z,5.40
2019-01-10T05:04:17.542Z,5.10
2019-01-10T05:06:48.670Z,5.07
2019-01-10T05:09:20.152Z,5.00
2019-01-10T05:11:51.280Z,5.80
2019-01-10T05:14:22.453Z,4.93
2019-01-10T05:16:53.468Z,4.53
2019-01-10T05:19:24.568Z,5.77
2019-01-10T05:21:55.637Z,5.50
2019-01-10T05:24:26.833Z,4.87
2019-01-10T05:26:57.918Z,4.03
2019-01-10T05:29:29.041Z,5.97
2019-01-10T05:32:00.025Z,5.77
2019-01-10T05:34:31.201Z,5.70
2019-01-10T05:37:02.373Z,5.70
2019-01-10T05:39:33.509Z,5.10
2019-01-10T05:42:04.577Z,5.83
2019-01-10T05:44:35.809Z,6.13
2019-01-10T05:47:06.956Z,7.40
2019-01-10T05:49:38.973Z,6.33
2019-01-10T05:52:10.075Z,5.10
2019-01-10T05:54:41.277Z,4.83
2019-01-10T05:57:12.374Z,5.20
2019-01-10T05:59:43.609Z,5.13
2019-01-10T06:02:14.749Z,5.30
2019-01-10T06:04:46.249Z,6.40
2019-01-10T06:07:17.369Z,4.73
2019-01-10T06:09:48.569Z,5.47
2019-01-10T06:12:19.737Z,5.87
2019-01-10T06:14:50.933Z,4.33
2019-01-10T06:17:21.942Z,6.50
2019-01-10T06:19:53.054Z,5.70
2019-01-10T06:22:24.116Z,4.37
2019-01-10T06:24:55.414Z,5.37
2019-01-10T06:27:26.414Z,4.93
2019-01-10T06:29:57.514Z,4.27
2019-01-10T06:32:28.602Z,4.50
2019-01-10T06:34:59.934Z,4.43
2019-01-10T06:37:31.145Z,5.17
2019-01-10T06:40:02.282Z,4.93
2019-01-10T06:42:33.475Z,3.90
2019-01-10T06:45:05.042Z,5.23
2019-01-10T06:47:36.084Z,5.10
2019-01-10T06:50:08.325Z,5.43
2019-01-10T06:52:39.390Z,5.27
2019-01-10T06:55:11.369Z,5.70
2019-01-10T06:57:42.581Z,5.30
2019-01-10T07:00:22.005Z,5.53
2019-01-10T07:02:53.449Z,4.53
2019-01-10T07:05:24.572Z,4.20
2019-01-10T07:07:56.629Z,3.37
2019-01-10T07:10:32.281Z,4.30
2019-01-10T07:13:03.357Z,4.53
2019-01-10T07:15:34.540Z,3.30
2019-01-10T07:18:05.437Z,4.50
2019-01-10T07:20:40.887Z,3.93
2019-01-10T07:23:12.019Z,4.53
2019-01-10T07:25:43.310Z,5.10
2019-01-10T07:28:29.657Z,4.20
2019-01-10T07:31:02.847Z,4.20
2019-01-10T07:33:33.806Z,4.23
2019-01-10T07:36:04.981Z,4.87
2019-01-10T07:38:36.089Z,3.77
2019-01-10T07:41:07.277Z,3.97
2019-01-10T07:43:38.357Z,4.27
2019-01-10T07:46:09.674Z,4.30
2019-01-10T07:48:40.666Z,4.23
2019-01-10T07:51:11.771Z,4.33
2019-01-10T07:53:42.749Z,4.07
2019-01-10T07:56:13.945Z,4.50
2019-01-10T07:58:45.025Z,4.70
2019-01-10T08:01:16.213Z,3.73
2019-01-10T08:03:47.217Z,3.83
2019-01-10T08:06:18.489Z,3.77
2019-01-10T08:08:49.604Z,4.20
2019-01-10T08:11:20.706Z,4.50
2019-01-10T08:13:51.699Z,5.60
2019-01-10T08:16:23.000Z,4.50
2019-01-10T08:18:54.075Z,4.37
2019-01-10T08:21:25.178Z,5.83
2019-01-10T08:23:56.272Z,5.50
2019-01-10T08:26:27.465Z,4.07
2019-01-10T08:28:58.560Z,4.00
2019-01-10T08:31:30.026Z,4.93
2019-01-10T08:34:01.241Z,4.03
2019-01-10T08:36:32.943Z,5.33
2019-01-10T08:39:05.513Z,5.47
2019-01-10T08:41:37.046Z,4.67
2019-01-10T08:44:08.073Z,5.20
2019-01-10T08:46:39.277Z,4.13
2019-01-10T08:49:10.271Z,4.53
2019-01-10T08:51:40.971Z,4.40
2019-01-10T08:54:12.097Z,4.30
2019-01-10T08:56:43.234Z,4.23
2019-01-10T08:59:14.317Z,4.73
2019-01-10T09:01:45.418Z,4.50
2019-01-10T09:04:16.412Z,5.00
2019-01-10T09:06:47.669Z,4.70
2019-01-10T09:09:18.695Z,4.70
2019-01-10T09:11:49.889Z,4.30
2019-01-10T09:14:22.843Z,4.40
2019-01-10T09:16:53.909Z,5.20
2019-01-10T09:19:24.998Z,5.80
2019-01-10T09:21:56.105Z,4.50
2019-01-10T09:24:27.287Z,4.63
2019-01-10T09:26:58.491Z,4.80
2019-01-10T09:29:29.568Z,4.90
2019-01-10T09:32:00.694Z,4.80
2019-01-10T09:34:31.777Z,4.87
2019-01-10T09:37:03.952Z,4.40
2019-01-10T09:39:35.186Z,4.80
2019-01-10T09:42:06.431Z,6.67
2019-01-10T09:44:37.618Z,5.47
2019-01-10T09:47:08.853Z,5.27
2019-01-10T09:49:39.857Z,4.57
2019-01-10T09:52:11.034Z,3.90
2019-01-10T09:54:42.135Z,5.53
2019-01-10T09:57:13.481Z,4.27
2019-01-10T09:59:44.529Z,4.20
2019-01-10T10:02:15.718Z,6.43
2019-01-10T10:04:46.716Z,5.00
2019-01-10T10:07:17.967Z,7.23
2019-01-10T10:09:49.097Z,5.17
2019-01-10T10:12:20.464Z,5.03
2019-01-10T10:14:51.589Z,5.47
2019-01-10T10:17:22.698Z,5.20
2019-01-10T10:19:53.769Z,4.90
2019-01-10T10:22:25.249Z,4.73
2019-01-10T10:24:56.370Z,4.37
2019-01-10T10:27:27.483Z,4.63
2019-01-10T10:29:58.464Z,7.80
2019-01-10T10:32:29.560Z,5.10
2019-01-10T10:35:01.054Z,4.63
2019-01-10T10:37:32.422Z,4.10
2019-01-10T10:40:04.881Z,4.37
2019-01-10T10:42:36.069Z,4.87
2019-01-10T10:45:07.378Z,6.17
2019-01-10T10:47:39.281Z,3.93
2019-01-10T10:50:16.288Z,4.43
2019-01-10T10:52:47.512Z,4.23
2019-01-10T10:55:19.527Z,4.57
2019-01-10T10:57:50.806Z,5.53
2019-01-10T11:00:23.889Z,5.10
2019-01-10T11:02:55.125Z,5.10
2019-01-10T11:05:26.158Z,5.83
2019-01-10T11:07:57.233Z,6.00
2019-01-10T11:10:28.221Z,6.03
2019-01-10T11:12:59.421Z,4.27
2019-01-10T11:15:30.402Z,5.00
2019-01-10T11:18:02.309Z,5.50
2019-01-10T11:20:33.405Z,5.20
2019-01-10T11:23:10.432Z,11.67
2019-01-10T11:25:37.329Z,9.17
2019-01-10T11:28:08.546Z,8.43
2019-01-10T11:30:39.686Z,7.27
2019-01-10T11:33:11.101Z,6.43
2019-01-10T11:35:42.125Z,5.63
2019-01-10T11:38:13.208Z,5.30
2019-01-10T11:40:45.170Z,5.10
2019-01-10T11:43:16.217Z,6.33
2019-01-10T11:45:47.194Z,5.60
2019-01-10T11:48:18.310Z,5.73
2019-01-10T11:50:49.477Z,5.57
2019-01-10T11:53:20.585Z,5.57
2019-01-10T11:55:51.472Z,5.20
2019-01-10T11:58:22.665Z,6.07
2019-01-10T12:00:53.848Z,6.40
2019-01-10T12:03:24.853Z,5.40
2019-01-10T12:05:55.833Z,5.57
2019-01-10T12:08:27.334Z,5.20
2019-01-10T12:10:58.437Z,5.97
2019-01-10T12:13:29.636Z,10.60
2019-01-10T12:16:00.709Z,8.40
2019-01-10T12:18:31.805Z,5.50
2019-01-10T12:21:02.813Z,7.10
2019-01-10T12:23:35.021Z,6.23
2019-01-10T12:26:06.018Z,5.50
2019-01-10T12:28:37.193Z,5.70
2019-01-10T12:31:08.202Z,6.13
2019-01-10T12:33:39.473Z,6.03
2019-01-10T12:36:10.577Z,5.50
2019-01-10T12:38:41.698Z,5.77
2019-01-10T12:41:12.673Z,4.70
2019-01-10T12:43:43.569Z,5.60
2019-01-10T12:46:14.639Z,5.10
2019-01-10T12:48:45.745Z,5.80
2019-01-10T12:51:16.634Z,5.60
2019-01-10T12:53:48.184Z,6.70
2019-01-10T12:56:19.214Z,7.10
2019-01-10T12:58:50.318Z,7.90
2019-01-10T13:01:21.326Z,7.33
2019-01-10T13:03:52.486Z,8.27
2019-01-10T13:06:23.585Z,6.60
2019-01-10T13:08:54.705Z,8.20
2019-01-10T13:11:25.668Z,6.60
2019-01-10T13:13:56.857Z,8.20
2019-01-10T13:16:27.757Z,7.90
2019-01-10T13:18:59.016Z,8.83
2019-01-10T13:21:29.934Z,7.40
2019-01-10T13:24:01.297Z,6.50
2019-01-10T13:26:32.330Z,5.80
2019-01-10T13:29:03.650Z,5.77
2019-01-10T13:31:34.709Z,6.20
2019-01-10T13:34:06.605Z,5.80
2019-01-10T13:36:37.714Z,5.90
2019-01-10T13:39:10.350Z,6.17
2019-01-10T13:41:41.343Z,6.60
2019-01-10T13:44:12.425Z,7.40
2019-01-10T13:46:43.413Z,7.07
2019-01-10T13:49:14.886Z,8.03
2019-01-10T13:51:46.109Z,7.83
2019-01-10T13:54:17.376Z,6.87
2019-01-10T13:56:48.397Z,7.37
2019-01-10T13:59:19.601Z,7.57
2019-01-10T14:01:50.678Z,5.87
2019-01-10T14:04:21.798Z,7.47
2019-01-10T14:06:52.771Z,6.10
2019-01-10T14:09:23.969Z,6.97
2019-01-10T14:11:55.052Z,8.50
2019-01-10T14:14:26.129Z,8.60
2019-01-10T14:17:01.634Z,7.63
2019-01-10T14:19:30.046Z,6.73
2019-01-10T14:22:01.074Z,11.03
2019-01-10T14:24:32.247Z,7.97
2019-01-10T14:27:03.361Z,7.33
2019-01-10T14:29:34.609Z,6.77
2019-01-10T14:32:05.737Z,6.83
2019-01-10T14:34:36.937Z,6.60
2019-01-10T14:37:08.198Z,6.70
2019-01-10T14:39:39.761Z,5.50
2019-01-10T14:42:10.825Z,6.10
2019-01-10T14:44:41.938Z,6.20
2019-01-10T14:47:12.909Z,7.00
2019-01-10T14:49:44.809Z,7.20
2019-01-10T14:52:15.889Z,7.60
2019-01-10T14:54:46.901Z,5.70
2019-01-10T14:57:17.889Z,10.37
2019-01-10T14:59:49.098Z,8.20
2019-01-10T15:02:20.083Z,8.27
2019-01-10T15:04:51.261Z,5.67
2019-01-10T15:07:22.358Z,6.90
2019-01-10T15:09:53.546Z,8.60
2019-01-10T15:12:24.549Z,6.70
2019-01-10T15:14:55.644Z,7.27
2019-01-10T15:17:26.725Z,5.53
2019-01-10T15:19:57.905Z,6.73
2019-01-10T15:22:28.924Z,6.17
2019-01-10T15:25:00.113Z,6.00
2019-01-10T15:27:31.197Z,6.87
2019-01-10T15:32:34.312Z,8.80
2019-01-10T15:35:06.958Z,9.20
2019-01-10T15:37:37.943Z,11.90
2019-01-10T15:40:12.086Z,13.80
2019-01-10T15:42:43.186Z,12.30
2019-01-10T15:45:14.932Z,7.97
2019-01-10T15:47:46.078Z,5.80
2019-01-10T15:50:18.399Z,11.87
2019-01-10T15:52:49.607Z,14.90
2019-01-10T15:55:21.081Z,13.77
2019-01-10T15:57:52.001Z,18.80
2019-01-10T16:00:24.202Z,11.43
2019-01-10T16:02:55.326Z,11.20
2019-01-10T16:05:26.570Z,9.67
2019-01-10T16:07:57.599Z,7.23
2019-01-10T16:10:28.969Z,8.83
2019-01-10T16:13:00.073Z,9.40
2019-01-10T16:15:31.465Z,7.40
2019-01-10T16:18:02.877Z,6.13
2019-01-10T16:20:34.040Z,7.50
2019-01-10T16:23:05.480Z,6.43
2019-01-10T16:25:36.670Z,6.90
2019-01-10T16:28:07.656Z,6.50
2019-01-10T16:30:38.812Z,6.30
2019-01-10T16:33:09.952Z,5.77
2019-01-10T16:35:41.137Z,7.10
2019-01-10T16:38:12.301Z,6.47
2019-01-10T16:40:43.357Z,6.67
2019-01-10T16:43:14.409Z,5.60
2019-01-10T16:45:45.896Z,5.37
2019-01-10T16:48:18.032Z,4.70
2019-01-10T16:50:49.601Z,6.40
2019-01-10T16:53:20.731Z,5.90
2019-01-10T16:55:52.117Z,5.13
2019-01-10T16:58:23.217Z,5.97
2019-01-10T17:00:54.607Z,5.60
2019-01-10T17:03:25.611Z,5.93
2019-01-10T17:05:56.721Z,4.93
2019-01-10T17:08:27.854Z,5.80
2019-01-10T17:11:01.847Z,5.87
2019-01-10T17:13:32.641Z,5.90
2019-01-10T17:16:03.633Z,9.40
2019-01-10T17:18:34.734Z,10.63
2019-01-10T17:21:06.125Z,8.63
2019-01-10T17:23:37.710Z,11.70
2019-01-10T17:26:11.707Z,12.67
2019-01-10T17:28:42.877Z,10.27
2019-01-10T17:31:13.933Z,9.60
2019-01-10T17:33:44.873Z,7.80
2019-01-10T17:36:18.534Z,6.67
2019-01-10T17:38:49.314Z,8.20
2019-01-10T17:41:20.655Z,6.80
2019-01-10T17:43:51.558Z,7.50
2019-01-10T17:46:22.670Z,7.60
2019-01-10T17:48:53.873Z,7.33
2019-01-10T17:51:25.069Z,8.63
2019-01-10T17:53:56.053Z,9.13
2019-01-10T17:56:27.189Z,8.00
2019-01-10T17:58:58.142Z,8.63
2019-01-10T18:01:29.429Z,6.50
2019-01-10T18:04:00.552Z,8.63
2019-01-10T18:06:31.706Z,8.07
2019-01-10T18:09:03.109Z,7.40
2019-01-10T18:11:35.653Z,22.57
2019-01-10T18:14:06.747Z,16.70
2019-01-10T18:16:37.940Z,16.87
2019-01-10T18:19:08.941Z,12.10
2019-01-10T18:21:40.213Z,11.00
2019-01-10T18:24:12.242Z,12.23
2019-01-10T18:26:43.330Z,11.33
2019-01-10T18:29:14.431Z,11.07
2019-01-10T18:31:45.925Z,10.00
2019-01-10T18:34:16.922Z,11.70
2019-01-10T18:36:48.189Z,10.30
2019-01-10T18:39:19.308Z,9.40
2019-01-10T18:41:50.498Z,7.37
2019-01-10T18:44:21.585Z,9.70
2019-01-10T18:46:52.686Z,9.67
2019-01-10T18:49:23.579Z,9.77
2019-01-10T18:51:55.734Z,9.23
2019-01-10T18:54:26.794Z,11.03
2019-01-10T18:56:57.859Z,8.30
2019-01-10T18:59:28.870Z,10.70
2019-01-10T19:01:59.958Z,11.23
2019-01-10T19:04:31.044Z,11.93
2019-01-10T19:07:02.245Z,11.40
2019-01-10T19:09:33.345Z,9.97
2019-01-10T19:12:04.522Z,9.30
2019-01-10T19:14:35.613Z,9.20
2019-01-10T19:17:06.719Z,9.80
2019-01-10T19:19:37.708Z,10.93
2019-01-10T19:22:09.082Z,9.00
2019-01-10T19:24:39.730Z,10.77
2019-01-10T19:27:10.773Z,10.17
2019-01-10T19:29:41.873Z,9.43
2019-01-10T19:32:12.957Z,7.97
2019-01-10T19:34:43.961Z,10.83
2019-01-10T19:37:15.154Z,8.30
2019-01-10T19:39:46.125Z,7.77
2019-01-10T19:42:17.238Z,8.10
2019-01-10T19:44:48.324Z,8.20
2019-01-10T19:47:19.512Z,9.20
2019-01-10T19:49:50.701Z,8.40
2019-01-10T19:52:21.802Z,9.47
2019-01-10T19:54:52.985Z,8.30
2019-01-10T19:57:24.189Z,8.23
2019-01-10T19:59:55.443Z,9.73
2019-01-10T20:02:26.489Z,9.80
2019-01-10T20:04:57.933Z,9.50
2019-01-10T20:07:29.101Z,9.30
2019-01-10T20:10:00.183Z,8.90
2019-01-10T20:12:31.616Z,9.07
2019-01-10T20:15:02.656Z,8.47
2019-01-10T20:17:34.777Z,7.90
2019-01-10T20:20:10.130Z,9.20
2019-01-10T20:22:41.261Z,7.90
2019-01-10T20:25:12.441Z,8.83
2019-01-10T20:27:43.646Z,8.20
2019-01-10T20:30:16.556Z,8.17
2019-01-10T20:32:47.985Z,8.20
2019-01-10T20:35:19.077Z,9.33
2019-01-10T20:37:50.261Z,8.63
2019-01-10T20:40:21.713Z,7.30
2019-01-10T20:42:52.873Z,9.10
2019-01-10T20:45:23.962Z,8.33
2019-01-10T20:47:55.544Z,8.47
2019-01-10T20:50:26.459Z,8.53
2019-01-10T20:52:57.637Z,9.33
2019-01-10T20:55:28.725Z,11.20
2019-01-10T20:57:59.832Z,10.90
2019-01-10T21:00:30.819Z,9.57
2019-01-10T21:03:02.389Z,9.80
2019-01-10T21:05:33.509Z,9.90
2019-01-10T21:08:05.081Z,8.30
2019-01-10T21:10:36.285Z,10.07
2019-01-10T21:13:07.493Z,9.60
2019-01-10T21:15:38.505Z,9.53
2019-01-10T21:18:09.588Z,9.77
2019-01-10T21:20:40.669Z,10.10
2019-01-10T21:23:11.753Z,10.33
2019-01-10T21:25:42.762Z,9.40
2019-01-10T21:28:13.849Z,9.67
2019-01-10T21:30:44.850Z,9.70
2019-01-10T21:33:16.276Z,10.70
2019-01-10T21:35:48.451Z,8.93
2019-01-10T21:38:19.630Z,9.87
2019-01-10T21:40:50.723Z,9.27
2019-01-10T21:43:21.922Z,8.90
2019-01-10T21:45:53.037Z,8.60
2019-01-10T21:48:24.133Z,9.57
2019-01-10T21:50:55.109Z,8.37
2019-01-10T21:53:27.000Z,8.90
2019-01-10T21:55:58.026Z,7.90
2019-01-10T21:58:29.281Z,7.77
2019-01-10T22:01:00.905Z,8.33
2019-01-10T22:03:32.353Z,7.93
2019-01-10T22:06:03.408Z,8.77
2019-01-10T22:08:34.604Z,8.17
2019-01-10T22:11:05.789Z,8.67
2019-01-10T22:13:36.894Z,8.60
2019-01-10T22:16:07.786Z,8.70
2019-01-10T22:18:41.628Z,8.30
2019-01-10T22:21:11.833Z,9.13
2019-01-10T22:23:43.821Z,8.87
2019-01-10T22:26:14.817Z,8.47
2019-01-10T22:28:46.061Z,8.90
2019-01-10T22:31:17.194Z,9.97
2019-01-10T22:33:48.401Z,8.40
2019-01-10T22:36:19.392Z,7.83
2019-01-10T22:38:50.574Z,10.30
2019-01-10T22:41:21.664Z,9.37
2019-01-10T22:43:53.060Z,10.43
2019-01-10T22:46:24.157Z,10.23
2019-01-10T22:48:55.365Z,10.13
2019-01-10T22:51:26.353Z,10.13
2019-01-10T22:53:57.446Z,8.33
2019-01-10T22:56:28.422Z,10.03
2019-01-10T22:58:59.738Z,9.30
2019-01-10T23:01:56.700Z,9.93
2019-01-10T23:04:39.418Z,9.70
2019-01-10T23:07:21.427Z,9.03
2019-01-10T23:09:54.204Z,9.80
2019-01-10T23:12:29.265Z,9.10
2019-01-10T23:15:03.347Z,10.47
2019-01-10T23:17:51.105Z,9.40
2019-01-10T23:20:22.388Z,9.67
2019-01-10T23:22:56.362Z,9.60
2019-01-10T23:25:27.702Z,10.17
2019-01-10T23:27:58.843Z,11.27
2019-01-10T23:30:49.843Z,9.93
2019-01-10T23:33:21.108Z,9.57
2019-01-10T23:35:57.857Z,9.00
2019-01-10T23:38:28.823Z,11.13
2019-01-10T23:41:00.357Z,10.80
2019-01-10T23:43:31.518Z,10.50
2019-01-10T23:46:02.709Z,9.97
2019-01-10T23:48:33.692Z,11.57
2019-01-10T23:51:04.966Z,9.73
2019-01-10T23:53:37.017Z,10.27
2019-01-10T23:56:08.113Z,10.57
2019-01-10T23:58:39.189Z,10.57
